sensor_id;sensor_type;location;lat;lon;timestamp;pressure;altitude;pressure_sealevel;temperature;humidity
66762;BME280;53672;48.176;16.338;2022-10-17T00:03:27;100083.34;;;12.46;100.00
66762;BME280;53672;48.176;16.338;2022-10-17T00:08:28;100087.09;;;12.35;100.00
66762;BME280;53672;48.176;16.338;2022-10-17T00:13:30;100085.72;;;12.27;100.00
66762;BME280;53672;48.176;16.338;2022-10-17T00:18:31;100083.81;;;12.12;100.00
66762;BME280;53672;48.176;16.338;2022-10-17T00:23:32;100094.06;;;12.00;100.00
66762;BME280;53672;48.176;16.338;2022-10-17T00:28:34;100096.97;;;11.89;100.00
66762;BME280;53672;48.176;16.338;2022-10-17T00:33:35;100107.50;;;11.80;100.00
66762;BME280;53672;48.176;16.338;2022-10-17T00:38:35;100111.50;;;11.73;100.00
66762;BME280;53672;48.176;16.338;2022-10-17T00:43:51;100111.25;;;11.74;100.00
66762;BME280;53672;48.176;16.338;2022-10-17T00:48:54;100102.34;;;11.74;100.00
66762;BME280;53672;48.176;16.338;2022-10-17T00:53:55;100103.63;;;11.66;100.00
66762;BME280;53672;48.176;16.338;2022-10-17T00:58:57;100101.69;;;11.56;100.00
66762;BME280;53672;48.176;16.338;2022-10-17T01:03:58;100091.66;;;11.47;100.00
66762;BME280;53672;48.176;16.338;2022-10-17T01:08:58;100095.91;;;11.38;100.00
66762;BME280;53672;48.176;16.338;2022-10-17T01:14:04;100088.03;;;11.31;100.00
66762;BME280;53672;48.176;16.338;2022-10-17T01:19:30;100093.78;;;11.45;100.00
66762;BME280;53672;48.176;16.338;2022-10-17T01:24:47;100082.41;;;11.38;100.00
66762;BME280;53672;48.176;16.338;2022-10-17T01:30:02;100082.66;;;11.31;100.00
66762;BME280;53672;48.176;16.338;2022-10-17T01:35:18;100079.38;;;11.24;100.00
66762;BME280;53672;48.176;16.338;2022-10-17T01:40:23;100077.19;;;11.16;100.00
66762;BME280;53672;48.176;16.338;2022-10-17T01:45:28;100077.66;;;11.08;100.00
66762;BME280;53672;48.176;16.338;2022-10-17T01:50:36;100076.25;;;11.00;100.00
66762;BME280;53672;48.176;16.338;2022-10-17T01:55:39;100070.84;;;10.95;100.00
66762;BME280;53672;48.176;16.338;2022-10-17T02:00:42;100070.78;;;10.90;100.00
66762;BME280;53672;48.176;16.338;2022-10-17T02:05:46;100066.16;;;10.86;100.00
66762;BME280;53672;48.176;16.338;2022-10-17T02:10:54;100061.03;;;10.84;100.00
66762;BME280;53672;48.176;16.338;2022-10-17T02:16:17;100058.28;;;10.79;100.00
66762;BME280;53672;48.176;16.338;2022-10-17T02:21:29;100060.16;;;10.74;100.00
66762;BME280;53672;48.176;16.338;2022-10-17T02:26:35;100055.53;;;10.69;100.00
66762;BME280;53672;48.176;16.338;2022-10-17T02:31:42;100070.34;;;10.66;100.00
66762;BME280;53672;48.176;16.338;2022-10-17T02:36:48;100072.19;;;10.61;100.00
66762;BME280;53672;48.176;16.338;2022-10-17T02:41:51;100078.44;;;10.66;100.00
66762;BME280;53672;48.176;16.338;2022-10-17T02:46:58;100082.19;;;10.65;100.00
66762;BME280;53672;48.176;16.338;2022-10-17T02:52:07;100079.19;;;10.62;100.00
66762;BME280;53672;48.176;16.338;2022-10-17T02:57:13;100086.22;;;10.63;100.00
66762;BME280;53672;48.176;16.338;2022-10-17T03:02:16;100096.47;;;10.61;100.00
66762;BME280;53672;48.176;16.338;2022-10-17T03:07:18;100091.00;;;10.56;100.00
66762;BME280;53672;48.176;16.338;2022-10-17T03:12:19;100096.38;;;10.51;100.00
66762;BME280;53672;48.176;16.338;2022-10-17T03:17:19;100098.25;;;10.50;100.00
66762;BME280;53672;48.176;16.338;2022-10-17T03:22:21;100098.47;;;10.44;100.00
66762;BME280;53672;48.176;16.338;2022-10-17T03:27:21;100109.47;;;10.42;100.00
66762;BME280;53672;48.176;16.338;2022-10-17T03:32:22;100114.53;;;10.34;100.00
66762;BME280;53672;48.176;16.338;2022-10-17T03:37:24;100125.09;;;10.40;100.00
66762;BME280;53672;48.176;16.338;2022-10-17T03:42:24;100127.94;;;10.29;100.00
66762;BME280;53672;48.176;16.338;2022-10-17T03:47:25;100135.38;;;10.16;100.00
66762;BME280;53672;48.176;16.338;2022-10-17T03:52:28;100132.25;;;10.08;100.00
66762;BME280;53672;48.176;16.338;2022-10-17T03:57:28;100139.47;;;10.02;100.00
66762;BME280;53672;48.176;16.338;2022-10-17T04:02:29;100142.41;;;10.01;100.00
66762;BME280;53672;48.176;16.338;2022-10-17T04:07:31;100140.00;;;9.99;100.00
66762;BME280;53672;48.176;16.338;2022-10-17T04:12:31;100150.19;;;9.97;100.00
66762;BME280;53672;48.176;16.338;2022-10-17T04:17:32;100148.25;;;9.93;100.00
66762;BME280;53672;48.176;16.338;2022-10-17T04:22:34;100146.66;;;9.97;100.00
66762;BME280;53672;48.176;16.338;2022-10-17T04:27:34;100148.00;;;9.94;100.00
66762;BME280;53672;48.176;16.338;2022-10-17T04:32:36;100156.88;;;9.95;100.00
66762;BME280;53672;48.176;16.338;2022-10-17T04:37:38;100161.47;;;9.94;100.00
66762;BME280;53672;48.176;16.338;2022-10-17T04:42:38;100160.09;;;9.92;100.00
66762;BME280;53672;48.176;16.338;2022-10-17T04:47:39;100162.78;;;9.92;100.00
66762;BME280;53672;48.176;16.338;2022-10-17T04:52:41;100168.66;;;9.89;100.00
66762;BME280;53672;48.176;16.338;2022-10-17T04:57:41;100165.72;;;9.90;100.00
66762;BME280;53672;48.176;16.338;2022-10-17T05:02:42;100175.63;;;10.06;100.00
66762;BME280;53672;48.176;16.338;2022-10-17T05:07:43;100183.84;;;10.16;100.00
66762;BME280;53672;48.176;16.338;2022-10-17T05:12:45;100188.22;;;10.44;100.00
66762;BME280;53672;48.176;16.338;2022-10-17T05:17:46;100195.00;;;10.52;100.00
66762;BME280;53672;48.176;16.338;2022-10-17T05:22:47;100200.16;;;10.53;100.00
66762;BME280;53672;48.176;16.338;2022-10-17T05:27:48;100201.94;;;10.43;100.00
66762;BME280;53672;48.176;16.338;2022-10-17T05:32:51;100205.28;;;10.55;100.00
66762;BME280;53672;48.176;16.338;2022-10-17T05:37:53;100214.28;;;10.65;100.00
66762;BME280;53672;48.176;16.338;2022-10-17T05:42:53;100224.94;;;10.77;100.00
66762;BME280;53672;48.176;16.338;2022-10-17T05:47:54;100230.50;;;10.92;100.00
66762;BME280;53672;48.176;16.338;2022-10-17T05:52:56;100245.78;;;11.13;100.00
66762;BME280;53672;48.176;16.338;2022-10-17T05:57:58;100253.25;;;11.33;100.00
66762;BME280;53672;48.176;16.338;2022-10-17T06:02:59;100246.66;;;11.56;100.00
66762;BME280;53672;48.176;16.338;2022-10-17T06:08:00;100248.41;;;11.72;100.00
66762;BME280;53672;48.176;16.338;2022-10-17T06:13:01;100256.81;;;11.76;100.00
66762;BME280;53672;48.176;16.338;2022-10-17T06:18:02;100264.91;;;12.17;100.00
66762;BME280;53672;48.176;16.338;2022-10-17T06:23:04;100268.38;;;12.75;100.00
66762;BME280;53672;48.176;16.338;2022-10-17T06:28:04;100273.34;;;13.13;100.00
66762;BME280;53672;48.176;16.338;2022-10-17T06:33:05;100272.53;;;13.63;94.17
66762;BME280;53672;48.176;16.338;2022-10-17T06:38:07;100283.16;;;14.59;90.30
66762;BME280;53672;48.176;16.338;2022-10-17T06:43:07;100291.38;;;14.29;90.31
66762;BME280;53672;48.176;16.338;2022-10-17T06:48:08;100299.13;;;14.66;88.62
66762;BME280;53672;48.176;16.338;2022-10-17T06:53:10;100298.69;;;14.39;88.46
66762;BME280;53672;48.176;16.338;2022-10-17T06:58:10;100297.50;;;14.75;88.98
66762;BME280;53672;48.176;16.338;2022-10-17T07:03:11;100308.25;;;14.90;87.33
66762;BME280;53672;48.176;16.338;2022-10-17T07:08:12;100309.69;;;14.78;87.40
66762;BME280;53672;48.176;16.338;2022-10-17T07:13:13;100326.13;;;14.27;89.08
66762;BME280;53672;48.176;16.338;2022-10-17T07:18:14;100320.88;;;14.61;88.92
66762;BME280;53672;48.176;16.338;2022-10-17T07:23:15;100320.78;;;14.81;87.07
66762;BME280;53672;48.176;16.338;2022-10-17T07:28:16;100315.34;;;14.86;86.82
66762;BME280;53672;48.176;16.338;2022-10-17T07:33:17;100315.56;;;14.90;85.77
66762;BME280;53672;48.176;16.338;2022-10-17T07:38:18;100323.31;;;15.16;87.66
66762;BME280;53672;48.176;16.338;2022-10-17T07:43:19;100315.75;;;15.52;84.20
66762;BME280;53672;48.176;16.338;2022-10-17T07:48:21;100328.44;;;15.96;80.17
66762;BME280;53672;48.176;16.338;2022-10-17T07:53:23;100332.19;;;16.29;79.15
66762;BME280;53672;48.176;16.338;2022-10-17T07:58:24;100329.06;;;16.88;76.91
66762;BME280;53672;48.176;16.338;2022-10-17T08:03:24;100327.16;;;17.07;75.76
66762;BME280;53672;48.176;16.338;2022-10-17T08:08:26;100332.91;;;17.24;76.71
66762;BME280;53672;48.176;16.338;2022-10-17T08:13:27;100336.66;;;17.47;75.72
66762;BME280;53672;48.176;16.338;2022-10-17T08:18:28;100348.38;;;17.98;73.37
66762;BME280;53672;48.176;16.338;2022-10-17T08:23:30;100348.50;;;18.66;68.54
66762;BME280;53672;48.176;16.338;2022-10-17T08:28:33;100348.81;;;20.08;64.11
66762;BME280;53672;48.176;16.338;2022-10-17T08:33:33;100347.47;;;21.24;61.83
66762;BME280;53672;48.176;16.338;2022-10-17T08:38:36;100350.31;;;23.27;54.43
66762;BME280;53672;48.176;16.338;2022-10-17T08:43:59;100344.13;;;23.71;54.18
66762;BME280;53672;48.176;16.338;2022-10-17T08:49:03;100345.59;;;24.02;50.98
66762;BME280;53672;48.176;16.338;2022-10-17T08:54:14;100345.38;;;24.40;50.10
66762;BME280;53672;48.176;16.338;2022-10-17T08:59:19;100335.75;;;24.82;49.05
66762;BME280;53672;48.176;16.338;2022-10-17T09:04:37;100346.97;;;26.21;44.74
66762;BME280;53672;48.176;16.338;2022-10-17T09:09:48;100342.63;;;24.64;47.75
66762;BME280;53672;48.176;16.338;2022-10-17T09:15:18;100347.81;;;24.53;50.02
66762;BME280;53672;48.176;16.338;2022-10-17T09:20:23;100352.53;;;25.01;46.95
66762;BME280;53672;48.176;16.338;2022-10-17T09:25:26;100345.00;;;25.78;46.50
66762;BME280;53672;48.176;16.338;2022-10-17T09:30:33;100336.66;;;27.15;42.91
66762;BME280;53672;48.176;16.338;2022-10-17T09:35:34;100335.81;;;26.80;45.75
66762;BME280;53672;48.176;16.338;2022-10-17T09:40:38;100338.75;;;28.14;40.63
66762;BME280;53672;48.176;16.338;2022-10-17T09:45:44;100337.63;;;26.26;45.10
66762;BME280;53672;48.176;16.338;2022-10-17T09:50:46;100338.97;;;28.74;40.07
66762;BME280;53672;48.176;16.338;2022-10-17T09:55:50;100331.72;;;27.44;41.29
66762;BME280;53672;48.176;16.338;2022-10-17T10:01:16;100336.97;;;28.97;42.20
66762;BME280;53672;48.176;16.338;2022-10-17T10:06:19;100341.25;;;29.47;37.92
66762;BME280;53672;48.176;16.338;2022-10-17T10:11:23;100333.59;;;30.95;35.81
66762;BME280;53672;48.176;16.338;2022-10-17T10:16:30;100331.19;;;29.09;40.39
66762;BME280;53672;48.176;16.338;2022-10-17T10:21:30;100328.88;;;29.15;39.81
66762;BME280;53672;48.176;16.338;2022-10-17T10:26:37;100323.00;;;28.67;39.86
66762;BME280;53672;48.176;16.338;2022-10-17T10:31:38;100319.50;;;28.48;40.32
66762;BME280;53672;48.176;16.338;2022-10-17T10:36:44;100315.00;;;30.55;37.49
66762;BME280;53672;48.176;16.338;2022-10-17T10:41:47;100297.50;;;29.41;37.19
66762;BME280;53672;48.176;16.338;2022-10-17T10:47:04;100300.28;;;32.28;32.17
66762;BME280;53672;48.176;16.338;2022-10-17T10:52:07;100301.81;;;30.49;35.94
66762;BME280;53672;48.176;16.338;2022-10-17T10:57:16;100287.25;;;28.40;40.28
66762;BME280;53672;48.176;16.338;2022-10-17T11:02:23;100296.97;;;29.61;39.19
66762;BME280;53672;48.176;16.338;2022-10-17T11:07:28;100297.09;;;30.09;35.53
66762;BME280;53672;48.176;16.338;2022-10-17T11:12:34;100280.84;;;27.71;40.43
66762;BME280;53672;48.176;16.338;2022-10-17T11:17:41;100280.31;;;28.76;40.91
66762;BME280;53672;48.176;16.338;2022-10-17T11:22:46;100276.53;;;28.38;40.53
66762;BME280;53672;48.176;16.338;2022-10-17T11:27:48;100282.25;;;25.23;47.50
66762;BME280;53672;48.176;16.338;2022-10-17T11:32:52;100258.56;;;24.58;48.25
66762;BME280;53672;48.176;16.338;2022-10-17T11:37:59;100262.66;;;24.76;49.60
66762;BME280;53672;48.176;16.338;2022-10-17T11:43:14;100255.94;;;23.47;51.75
66762;BME280;53672;48.176;16.338;2022-10-17T11:48:21;100244.72;;;23.97;50.06
66762;BME280;53672;48.176;16.338;2022-10-17T11:53:24;100263.22;;;23.10;53.90
66762;BME280;53672;48.176;16.338;2022-10-17T11:58:36;100236.84;;;23.09;52.83
66762;BME280;53672;48.176;16.338;2022-10-17T12:03:59;100250.94;;;22.87;55.16
66762;BME280;53672;48.176;16.338;2022-10-17T12:09:11;100229.22;;;22.65;53.73
66762;BME280;53672;48.176;16.338;2022-10-17T12:14:37;100228.19;;;22.78;53.27
66762;BME280;53672;48.176;16.338;2022-10-17T12:19:38;100212.72;;;22.73;53.42
66762;BME280;53672;48.176;16.338;2022-10-17T12:24:40;100210.81;;;22.86;54.41
66762;BME280;53672;48.176;16.338;2022-10-17T12:29:43;100219.06;;;22.86;52.97
66762;BME280;53672;48.176;16.338;2022-10-17T12:34:51;100214.91;;;23.01;52.44
66762;BME280;53672;48.176;16.338;2022-10-17T12:39:52;100215.72;;;23.01;51.67
66762;BME280;53672;48.176;16.338;2022-10-17T12:44:54;100211.72;;;23.32;50.89
66762;BME280;53672;48.176;16.338;2022-10-17T12:49:54;100211.81;;;23.02;51.59
66762;BME280;53672;48.176;16.338;2022-10-17T12:55:04;100209.19;;;23.06;50.66
66762;BME280;53672;48.176;16.338;2022-10-17T13:00:16;100218.53;;;22.93;51.09
66762;BME280;53672;48.176;16.338;2022-10-17T13:05:23;100214.25;;;22.83;50.56
66762;BME280;53672;48.176;16.338;2022-10-17T13:10:26;100226.38;;;22.82;50.97
66762;BME280;53672;48.176;16.338;2022-10-17T13:15:29;100207.00;;;22.79;51.97
66762;BME280;53672;48.176;16.338;2022-10-17T13:20:30;100218.84;;;22.91;50.55
66762;BME280;53672;48.176;16.338;2022-10-17T13:25:31;100211.56;;;22.74;50.39
66762;BME280;53672;48.176;16.338;2022-10-17T13:30:34;100202.94;;;22.55;50.71
66762;BME280;53672;48.176;16.338;2022-10-17T13:35:36;100205.03;;;22.29;51.12
66762;BME280;53672;48.176;16.338;2022-10-17T13:40:40;100198.81;;;22.41;51.14
66762;BME280;53672;48.176;16.338;2022-10-17T13:45:46;100195.88;;;22.46;50.62
66762;BME280;53672;48.176;16.338;2022-10-17T13:50:50;100192.59;;;22.32;50.75
66762;BME280;53672;48.176;16.338;2022-10-17T13:55:57;100200.34;;;22.30;50.58
66762;BME280;53672;48.176;16.338;2022-10-17T14:01:00;100199.13;;;22.18;51.07
66762;BME280;53672;48.176;16.338;2022-10-17T14:06:04;100210.94;;;22.10;51.92
66762;BME280;53672;48.176;16.338;2022-10-17T14:11:13;100221.84;;;21.98;52.15
66762;BME280;53672;48.176;16.338;2022-10-17T14:16:16;100208.75;;;21.87;51.91
66762;BME280;53672;48.176;16.338;2022-10-17T14:21:22;100214.44;;;21.90;51.72
66762;BME280;53672;48.176;16.338;2022-10-17T14:26:23;100207.66;;;21.79;52.11
66762;BME280;53672;48.176;16.338;2022-10-17T14:31:29;100203.16;;;21.74;52.46
66762;BME280;53672;48.176;16.338;2022-10-17T14:36:34;100209.63;;;21.61;52.46
66762;BME280;53672;48.176;16.338;2022-10-17T14:41:35;100205.75;;;21.62;53.83
66762;BME280;53672;48.176;16.338;2022-10-17T14:46:43;100216.13;;;21.48;52.79
66762;BME280;53672;48.176;16.338;2022-10-17T14:52:09;100204.19;;;21.44;52.48
66762;BME280;53672;48.176;16.338;2022-10-17T14:57:14;100204.38;;;21.31;52.63
66762;BME280;53672;48.176;16.338;2022-10-17T15:02:18;100198.56;;;21.23;52.54
66762;BME280;53672;48.176;16.338;2022-10-17T15:07:19;100211.97;;;21.08;51.93
66762;BME280;53672;48.176;16.338;2022-10-17T15:12:21;100210.19;;;21.03;51.88
66762;BME280;53672;48.176;16.338;2022-10-17T15:17:26;100211.50;;;20.89;52.42
66762;BME280;53672;48.176;16.338;2022-10-17T15:22:27;100210.34;;;20.81;52.40
66762;BME280;53672;48.176;16.338;2022-10-17T15:27:28;100216.97;;;20.71;52.23
66762;BME280;53672;48.176;16.338;2022-10-17T15:32:30;100219.19;;;20.61;52.96
66762;BME280;53672;48.176;16.338;2022-10-17T15:37:32;100225.13;;;20.46;53.48
66762;BME280;53672;48.176;16.338;2022-10-17T15:42:33;100215.09;;;20.33;52.69
66762;BME280;53672;48.176;16.338;2022-10-17T15:47:35;100227.31;;;20.27;53.04
66762;BME280;53672;48.176;16.338;2022-10-17T15:52:35;100241.91;;;20.13;53.04
66762;BME280;53672;48.176;16.338;2022-10-17T15:57:38;100248.72;;;19.94;53.96
66762;BME280;53672;48.176;16.338;2022-10-17T16:02:40;100236.28;;;19.79;53.67
66762;BME280;53672;48.176;16.338;2022-10-17T16:07:41;100242.16;;;19.64;53.49
66762;BME280;53672;48.176;16.338;2022-10-17T16:12:42;100244.03;;;19.55;53.38
66762;BME280;53672;48.176;16.338;2022-10-17T16:17:44;100237.28;;;19.39;53.82
66762;BME280;53672;48.176;16.338;2022-10-17T16:22:45;100236.41;;;19.30;53.73
66762;BME280;53672;48.176;16.338;2022-10-17T16:27:47;100250.97;;;19.16;53.55
66762;BME280;53672;48.176;16.338;2022-10-17T16:32:49;100244.31;;;19.09;53.74
66762;BME280;53672;48.176;16.338;2022-10-17T16:37:49;100242.63;;;18.99;53.99
66762;BME280;53672;48.176;16.338;2022-10-17T16:42:50;100245.38;;;18.86;54.43
66762;BME280;53672;48.176;16.338;2022-10-17T16:47:52;100246.63;;;18.80;53.47
66762;BME280;53672;48.176;16.338;2022-10-17T16:52:53;100247.16;;;18.68;54.18
66762;BME280;53672;48.176;16.338;2022-10-17T16:57:53;100240.81;;;18.59;54.01
66762;BME280;53672;48.176;16.338;2022-10-17T17:02:55;100232.78;;;18.49;54.93
66762;BME280;53672;48.176;16.338;2022-10-17T17:07:56;100233.69;;;18.44;54.67
66762;BME280;53672;48.176;16.338;2022-10-17T17:12:56;100228.66;;;18.38;54.60
66762;BME280;53672;48.176;16.338;2022-10-17T17:17:58;100221.69;;;18.32;54.74
66762;BME280;53672;48.176;16.338;2022-10-17T17:22:59;100238.16;;;18.27;55.10
66762;BME280;53672;48.176;16.338;2022-10-17T17:28:01;100235.34;;;18.18;55.21
66762;BME280;53672;48.176;16.338;2022-10-17T17:33:03;100237.66;;;18.11;55.77
66762;BME280;53672;48.176;16.338;2022-10-17T17:38:04;100243.59;;;17.99;56.86
66762;BME280;53672;48.176;16.338;2022-10-17T17:43:05;100242.09;;;17.93;57.12
66762;BME280;53672;48.176;16.338;2022-10-17T17:48:08;100248.75;;;17.87;57.78
66762;BME280;53672;48.176;16.338;2022-10-17T17:53:10;100258.13;;;17.81;59.05
66762;BME280;53672;48.176;16.338;2022-10-17T17:58:12;100241.66;;;17.72;59.31
66762;BME280;53672;48.176;16.338;2022-10-17T18:03:13;100248.53;;;17.70;59.55
66762;BME280;53672;48.176;16.338;2022-10-17T18:08:15;100251.31;;;17.65;60.25
66762;BME280;53672;48.176;16.338;2022-10-17T18:13:16;100240.00;;;17.58;60.93
66762;BME280;53672;48.176;16.338;2022-10-17T18:18:19;100246.63;;;17.52;61.40
66762;BME280;53672;48.176;16.338;2022-10-17T18:23:20;100234.19;;;17.46;61.91
66762;BME280;53672;48.176;16.338;2022-10-17T18:28:21;100242.97;;;17.43;62.35
66762;BME280;53672;48.176;16.338;2022-10-17T18:33:24;100249.22;;;17.43;62.46
66762;BME280;53672;48.176;16.338;2022-10-17T18:38:25;100253.78;;;17.48;62.43
66762;BME280;53672;48.176;16.338;2022-10-17T18:43:26;100253.50;;;17.31;63.32
66762;BME280;53672;48.176;16.338;2022-10-17T18:48:30;100256.63;;;17.24;63.63
66762;BME280;53672;48.176;16.338;2022-10-17T18:53:31;100262.38;;;17.22;63.71
66762;BME280;53672;48.176;16.338;2022-10-17T18:58:32;100257.06;;;17.12;63.96
66762;BME280;53672;48.176;16.338;2022-10-17T19:03:35;100258.78;;;17.08;64.22
66762;BME280;53672;48.176;16.338;2022-10-17T19:08:36;100253.97;;;17.00;64.72
66762;BME280;53672;48.176;16.338;2022-10-17T19:13:37;100247.72;;;17.00;64.88
66762;BME280;53672;48.176;16.338;2022-10-17T19:18:40;100258.13;;;16.98;64.99
66762;BME280;53672;48.176;16.338;2022-10-17T19:23:41;100256.34;;;16.88;65.44
66762;BME280;53672;48.176;16.338;2022-10-17T19:28:42;100248.84;;;16.80;65.94
66762;BME280;53672;48.176;16.338;2022-10-17T19:33:44;100259.94;;;16.84;65.93
66762;BME280;53672;48.176;16.338;2022-10-17T19:38:45;100252.06;;;16.82;65.82
66762;BME280;53672;48.176;16.338;2022-10-17T19:43:45;100273.41;;;16.75;66.25
66762;BME280;53672;48.176;16.338;2022-10-17T19:48:49;100280.78;;;16.75;66.08
66762;BME280;53672;48.176;16.338;2022-10-17T19:53:50;100274.53;;;16.74;66.39
66762;BME280;53672;48.176;16.338;2022-10-17T19:58:52;100272.38;;;16.71;66.25
66762;BME280;53672;48.176;16.338;2022-10-17T20:03:55;100266.34;;;16.74;66.10
66762;BME280;53672;48.176;16.338;2022-10-17T20:08:56;100269.66;;;16.71;66.25
66762;BME280;53672;48.176;16.338;2022-10-17T20:13:58;100265.38;;;16.65;66.05
66762;BME280;53672;48.176;16.338;2022-10-17T20:19:03;100270.06;;;16.59;66.67
66762;BME280;53672;48.176;16.338;2022-10-17T20:24:06;100273.72;;;16.50;66.81
66762;BME280;53672;48.176;16.338;2022-10-17T20:29:10;100282.09;;;16.53;66.85
66762;BME280;53672;48.176;16.338;2022-10-17T20:34:14;100274.34;;;16.42;67.45
66762;BME280;53672;48.176;16.338;2022-10-17T20:39:16;100270.06;;;16.36;67.78
66762;BME280;53672;48.176;16.338;2022-10-17T20:44:17;100266.38;;;16.27;67.97
66762;BME280;53672;48.176;16.338;2022-10-17T20:49:19;100264.31;;;16.13;69.04
66762;BME280;53672;48.176;16.338;2022-10-17T20:54:19;100258.41;;;16.06;69.30
66762;BME280;53672;48.176;16.338;2022-10-17T20:59:20;100255.66;;;16.11;68.97
66762;BME280;53672;48.176;16.338;2022-10-17T21:04:22;100254.84;;;16.11;68.95
66762;BME280;53672;48.176;16.338;2022-10-17T21:09:22;100270.13;;;16.07;69.33
66762;BME280;53672;48.176;16.338;2022-10-17T21:14:24;100261.78;;;15.98;69.57
66762;BME280;53672;48.176;16.338;2022-10-17T21:19:26;100259.66;;;15.95;69.76
66762;BME280;53672;48.176;16.338;2022-10-17T21:24:26;100259.41;;;15.92;70.14
66762;BME280;53672;48.176;16.338;2022-10-17T21:29:26;100265.19;;;15.85;70.20
66762;BME280;53672;48.176;16.338;2022-10-17T21:34:28;100265.56;;;15.73;70.90
66762;BME280;53672;48.176;16.338;2022-10-17T21:39:29;100262.97;;;15.58;71.54
66762;BME280;53672;48.176;16.338;2022-10-17T21:44:30;100253.00;;;15.49;72.05
66762;BME280;53672;48.176;16.338;2022-10-17T21:49:32;100259.53;;;15.48;71.64
66762;BME280;53672;48.176;16.338;2022-10-17T21:54:32;100255.44;;;15.50;71.31
66762;BME280;53672;48.176;16.338;2022-10-17T21:59:33;100249.19;;;15.45;71.20
66762;BME280;53672;48.176;16.338;2022-10-17T22:04:35;100254.16;;;15.38;71.42
66762;BME280;53672;48.176;16.338;2022-10-17T22:09:35;100235.94;;;15.38;71.09
66762;BME280;53672;48.176;16.338;2022-10-17T22:14:36;100242.28;;;15.29;71.49
66762;BME280;53672;48.176;16.338;2022-10-17T22:19:37;100240.72;;;15.17;72.08
66762;BME280;53672;48.176;16.338;2022-10-17T22:24:38;100244.97;;;15.00;72.90
66762;BME280;53672;48.176;16.338;2022-10-17T22:29:38;100243.41;;;14.89;73.21
66762;BME280;53672;48.176;16.338;2022-10-17T22:34:40;100246.19;;;14.73;73.84
66762;BME280;53672;48.176;16.338;2022-10-17T22:39:41;100243.00;;;14.61;74.65
66762;BME280;53672;48.176;16.338;2022-10-17T22:44:41;100246.34;;;14.48;75.33
66762;BME280;53672;48.176;16.338;2022-10-17T22:49:43;100239.84;;;14.39;75.79
66762;BME280;53672;48.176;16.338;2022-10-17T22:54:43;100239.59;;;14.31;76.28
66762;BME280;53672;48.176;16.338;2022-10-17T22:59:44;100238.28;;;14.18;77.00
66762;BME280;53672;48.176;16.338;2022-10-17T23:04:46;100233.47;;;14.00;77.76
66762;BME280;53672;48.176;16.338;2022-10-17T23:09:46;100231.59;;;13.85;78.74
66762;BME280;53672;48.176;16.338;2022-10-17T23:14:47;100231.09;;;13.68;79.61
66762;BME280;53672;48.176;16.338;2022-10-17T23:19:49;100231.66;;;13.55;80.66
66762;BME280;53672;48.176;16.338;2022-10-17T23:24:49;100225.69;;;13.48;81.42
66762;BME280;53672;48.176;16.338;2022-10-17T23:29:50;100222.19;;;13.42;81.85
66762;BME280;53672;48.176;16.338;2022-10-17T23:34:51;100221.91;;;13.44;81.78
66762;BME280;53672;48.176;16.338;2022-10-17T23:39:52;100220.00;;;13.44;81.57
66762;BME280;53672;48.176;16.338;2022-10-17T23:44:52;100220.81;;;13.55;80.92
66762;BME280;53672;48.176;16.338;2022-10-17T23:49:54;100223.53;;;13.45;81.17
66762;BME280;53672;48.176;16.338;2022-10-17T23:54:55;100218.66;;;13.37;81.69
66762;BME280;53672;48.176;16.338;2022-10-17T23:59:55;100221.94;;;13.29;81.42
